sensor_id;sensor_type;location;lat;lon;timestamp;P1;durP1;ratioP1;P2;durP2;ratioP2
25231;SDS011;13176;51.140;6.290;2023-10-31T00:00:22;542.50;;;508.65;;
25231;SDS011;13176;51.140;6.290;2023-10-31T00:02:49;444.98;;;420.33;;
25231;SDS011;13176;51.140;6.290;2023-10-31T00:05:15;462.13;;;433.92;;
25231;SDS011;13176;51.140;6.290;2023-10-31T00:07:45;379.83;;;358.63;;
25231;SDS011;13176;51.140;6.290;2023-10-31T00:10:12;360.52;;;340.70;;
25231;SDS011;13176;51.140;6.290;2023-10-31T00:12:39;376.80;;;355.45;;
25231;SDS011;13176;51.140;6.290;2023-10-31T00:15:06;314.30;;;297.27;;
25231;SDS011;13176;51.140;6.290;2023-10-31T00:17:32;325.85;;;308.00;;
25231;SDS011;13176;51.140;6.290;2023-10-31T00:19:59;264.02;;;249.15;;
25231;SDS011;13176;51.140;6.290;2023-10-31T00:22:26;254.90;;;240.68;;
25231;SDS011;13176;51.140;6.290;2023-10-31T00:24:52;274.40;;;259.83;;
25231;SDS011;13176;51.140;6.290;2023-10-31T00:27:19;290.55;;;273.92;;
25231;SDS011;13176;51.140;6.290;2023-10-31T00:29:45;279.05;;;263.63;;
25231;SDS011;13176;51.140;6.290;2023-10-31T00:32:12;307.70;;;291.02;;
25231;SDS011;13176;51.140;6.290;2023-10-31T00:34:38;312.48;;;295.33;;
25231;SDS011;13176;51.140;6.290;2023-10-31T00:37:04;333.10;;;314.83;;
25231;SDS011;13176;51.140;6.290;2023-10-31T00:39:31;419.27;;;394.80;;
25231;SDS011;13176;51.140;6.290;2023-10-31T00:41:59;375.70;;;355.35;;
25231;SDS011;13176;51.140;6.290;2023-10-31T00:44:26;361.00;;;341.02;;
25231;SDS011;13176;51.140;6.290;2023-10-31T00:46:52;374.58;;;353.55;;
25231;SDS011;13176;51.140;6.290;2023-10-31T00:49:18;329.88;;;312.05;;
25231;SDS011;13176;51.140;6.290;2023-10-31T00:51:45;339.95;;;321.02;;
25231;SDS011;13176;51.140;6.290;2023-10-31T00:54:11;324.42;;;306.30;;
25231;SDS011;13176;51.140;6.290;2023-10-31T00:56:38;279.92;;;264.92;;
25231;SDS011;13176;51.140;6.290;2023-10-31T00:59:04;289.00;;;273.63;;
25231;SDS011;13176;51.140;6.290;2023-10-31T01:01:31;291.45;;;275.45;;
25231;SDS011;13176;51.140;6.290;2023-10-31T01:03:58;309.67;;;292.98;;
25231;SDS011;13176;51.140;6.290;2023-10-31T01:06:24;293.05;;;277.02;;
25231;SDS011;13176;51.140;6.290;2023-10-31T01:08:51;294.55;;;278.67;;
25231;SDS011;13176;51.140;6.290;2023-10-31T01:11:17;270.52;;;255.93;;
25231;SDS011;13176;51.140;6.290;2023-10-31T01:13:44;295.67;;;279.17;;
25231;SDS011;13176;51.140;6.290;2023-10-31T01:16:10;263.65;;;249.45;;
25231;SDS011;13176;51.140;6.290;2023-10-31T01:18:37;269.85;;;255.25;;
25231;SDS011;13176;51.140;6.290;2023-10-31T01:21:04;284.98;;;269.75;;
25231;SDS011;13176;51.140;6.290;2023-10-31T01:23:30;290.15;;;274.10;;
25231;SDS011;13176;51.140;6.290;2023-10-31T01:25:57;351.80;;;331.15;;
25231;SDS011;13176;51.140;6.290;2023-10-31T01:28:23;309.85;;;293.00;;
25231;SDS011;13176;51.140;6.290;2023-10-31T01:30:49;395.83;;;373.45;;
25231;SDS011;13176;51.140;6.290;2023-10-31T01:33:16;430.88;;;405.73;;
25231;SDS011;13176;51.140;6.290;2023-10-31T01:35:42;395.88;;;373.67;;
25231;SDS011;13176;51.140;6.290;2023-10-31T01:38:09;404.05;;;381.30;;
25231;SDS011;13176;51.140;6.290;2023-10-31T01:40:35;405.35;;;382.10;;
25231;SDS011;13176;51.140;6.290;2023-10-31T01:43:02;408.83;;;385.85;;
25231;SDS011;13176;51.140;6.290;2023-10-31T01:45:28;501.20;;;471.52;;
25231;SDS011;13176;51.140;6.290;2023-10-31T01:47:54;409.45;;;386.50;;
25231;SDS011;13176;51.140;6.290;2023-10-31T01:50:21;409.08;;;385.92;;
25231;SDS011;13176;51.140;6.290;2023-10-31T01:52:48;430.20;;;405.13;;
25231;SDS011;13176;51.140;6.290;2023-10-31T01:55:14;452.05;;;426.25;;
25231;SDS011;13176;51.140;6.290;2023-10-31T01:57:41;474.90;;;447.00;;
25231;SDS011;13176;51.140;6.290;2023-10-31T02:00:10;451.45;;;425.73;;
25231;SDS011;13176;51.140;6.290;2023-10-31T02:02:39;458.63;;;431.63;;
25231;SDS011;13176;51.140;6.290;2023-10-31T02:05:09;442.48;;;417.00;;
25231;SDS011;13176;51.140;6.290;2023-10-31T02:07:36;447.80;;;421.85;;
25231;SDS011;13176;51.140;6.290;2023-10-31T02:10:02;453.00;;;426.92;;
25231;SDS011;13176;51.140;6.290;2023-10-31T02:12:32;502.45;;;473.15;;
25231;SDS011;13176;51.140;6.290;2023-10-31T02:14:59;549.90;;;517.03;;
25231;SDS011;13176;51.140;6.290;2023-10-31T02:17:26;581.47;;;544.40;;
25231;SDS011;13176;51.140;6.290;2023-10-31T02:19:52;599.35;;;561.97;;
25231;SDS011;13176;51.140;6.290;2023-10-31T02:22:19;634.17;;;593.45;;
25231;SDS011;13176;51.140;6.290;2023-10-31T02:24:46;655.50;;;613.90;;
25231;SDS011;13176;51.140;6.290;2023-10-31T02:27:12;692.78;;;645.60;;
25231;SDS011;13176;51.140;6.290;2023-10-31T02:29:39;670.72;;;625.75;;
25231;SDS011;13176;51.140;6.290;2023-10-31T02:32:06;679.97;;;634.90;;
25231;SDS011;13176;51.140;6.290;2023-10-31T02:34:32;673.58;;;629.08;;
25231;SDS011;13176;51.140;6.290;2023-10-31T02:37:00;682.13;;;636.33;;
25231;SDS011;13176;51.140;6.290;2023-10-31T02:39:26;706.50;;;659.60;;
25231;SDS011;13176;51.140;6.290;2023-10-31T02:41:53;712.85;;;664.83;;
25231;SDS011;13176;51.140;6.290;2023-10-31T02:44:19;714.65;;;667.00;;
25231;SDS011;13176;51.140;6.290;2023-10-31T02:46:46;659.05;;;615.95;;
25231;SDS011;13176;51.140;6.290;2023-10-31T02:49:12;678.28;;;634.10;;
25231;SDS011;13176;51.140;6.290;2023-10-31T02:51:38;654.33;;;611.10;;
25231;SDS011;13176;51.140;6.290;2023-10-31T02:54:05;651.08;;;608.60;;
25231;SDS011;13176;51.140;6.290;2023-10-31T02:56:32;611.25;;;572.35;;
25231;SDS011;13176;51.140;6.290;2023-10-31T02:58:58;618.67;;;580.13;;
25231;SDS011;13176;51.140;6.290;2023-10-31T03:01:27;587.05;;;551.92;;
25231;SDS011;13176;51.140;6.290;2023-10-31T03:03:54;561.75;;;528.25;;
25231;SDS011;13176;51.140;6.290;2023-10-31T03:06:21;575.85;;;540.80;;
25231;SDS011;13176;51.140;6.290;2023-10-31T03:08:47;534.30;;;503.10;;
25231;SDS011;13176;51.140;6.290;2023-10-31T03:11:21;512.30;;;481.63;;
25231;SDS011;13176;51.140;6.290;2023-10-31T03:13:51;483.45;;;455.13;;
25231;SDS011;13176;51.140;6.290;2023-10-31T03:16:19;477.77;;;449.88;;
25231;SDS011;13176;51.140;6.290;2023-10-31T03:18:46;487.20;;;458.55;;
25231;SDS011;13176;51.140;6.290;2023-10-31T03:21:13;482.73;;;454.80;;
25231;SDS011;13176;51.140;6.290;2023-10-31T03:23:41;523.78;;;493.15;;
25231;SDS011;13176;51.140;6.290;2023-10-31T03:26:08;520.83;;;490.20;;
25231;SDS011;13176;51.140;6.290;2023-10-31T03:28:35;517.63;;;487.20;;
25231;SDS011;13176;51.140;6.290;2023-10-31T03:31:01;485.90;;;457.42;;
25231;SDS011;13176;51.140;6.290;2023-10-31T03:33:28;509.95;;;480.33;;
25231;SDS011;13176;51.140;6.290;2023-10-31T03:35:54;518.65;;;488.25;;
25231;SDS011;13176;51.140;6.290;2023-10-31T03:38:21;539.22;;;506.35;;
25231;SDS011;13176;51.140;6.290;2023-10-31T03:40:47;492.92;;;463.77;;
25231;SDS011;13176;51.140;6.290;2023-10-31T03:43:14;507.98;;;477.95;;
25231;SDS011;13176;51.140;6.290;2023-10-31T03:45:40;462.17;;;435.75;;
25231;SDS011;13176;51.140;6.290;2023-10-31T03:48:07;446.90;;;421.40;;
25231;SDS011;13176;51.140;6.290;2023-10-31T03:50:33;421.73;;;398.50;;
25231;SDS011;13176;51.140;6.290;2023-10-31T03:53:00;480.48;;;451.77;;
25231;SDS011;13176;51.140;6.290;2023-10-31T03:55:26;420.15;;;396.75;;
25231;SDS011;13176;51.140;6.290;2023-10-31T03:57:53;416.10;;;391.63;;
25231;SDS011;13176;51.140;6.290;2023-10-31T04:00:19;390.17;;;368.80;;
25231;SDS011;13176;51.140;6.290;2023-10-31T04:02:46;390.50;;;368.42;;
25231;SDS011;13176;51.140;6.290;2023-10-31T04:05:12;385.98;;;364.52;;
25231;SDS011;13176;51.140;6.290;2023-10-31T04:07:39;375.48;;;354.90;;
25231;SDS011;13176;51.140;6.290;2023-10-31T04:10:05;387.90;;;366.38;;
25231;SDS011;13176;51.140;6.290;2023-10-31T04:12:32;367.42;;;347.05;;
25231;SDS011;13176;51.140;6.290;2023-10-31T04:14:59;361.98;;;341.83;;
25231;SDS011;13176;51.140;6.290;2023-10-31T04:17:25;323.20;;;305.55;;
25231;SDS011;13176;51.140;6.290;2023-10-31T04:19:52;359.45;;;339.50;;
25231;SDS011;13176;51.140;6.290;2023-10-31T04:22:18;342.25;;;323.60;;
25231;SDS011;13176;51.140;6.290;2023-10-31T04:24:45;329.48;;;311.20;;
25231;SDS011;13176;51.140;6.290;2023-10-31T04:27:11;295.35;;;279.02;;
25231;SDS011;13176;51.140;6.290;2023-10-31T04:29:38;294.25;;;278.25;;
25231;SDS011;13176;51.140;6.290;2023-10-31T04:32:04;293.17;;;277.40;;
25231;SDS011;13176;51.140;6.290;2023-10-31T04:34:31;353.48;;;331.73;;
25231;SDS011;13176;51.140;6.290;2023-10-31T04:36:58;490.50;;;457.25;;
25231;SDS011;13176;51.140;6.290;2023-10-31T04:39:24;240.43;;;227.40;;
25231;SDS011;13176;51.140;6.290;2023-10-31T04:41:51;327.48;;;307.98;;
25231;SDS011;13176;51.140;6.290;2023-10-31T04:44:17;236.25;;;223.55;;
25231;SDS011;13176;51.140;6.290;2023-10-31T04:46:44;226.32;;;214.32;;
25231;SDS011;13176;51.140;6.290;2023-10-31T04:49:10;301.67;;;285.30;;
25231;SDS011;13176;51.140;6.290;2023-10-31T04:51:37;268.33;;;253.60;;
25231;SDS011;13176;51.140;6.290;2023-10-31T04:54:04;239.18;;;226.10;;
25231;SDS011;13176;51.140;6.290;2023-10-31T04:56:31;223.20;;;211.13;;
25231;SDS011;13176;51.140;6.290;2023-10-31T04:58:57;187.40;;;177.38;;
25231;SDS011;13176;51.140;6.290;2023-10-31T05:01:24;196.48;;;185.70;;
25231;SDS011;13176;51.140;6.290;2023-10-31T05:03:51;232.07;;;219.63;;
25231;SDS011;13176;51.140;6.290;2023-10-31T05:06:32;179.00;;;169.02;;
25231;SDS011;13176;51.140;6.290;2023-10-31T05:08:58;199.85;;;188.75;;
25231;SDS011;13176;51.140;6.290;2023-10-31T05:11:25;217.85;;;206.05;;
25231;SDS011;13176;51.140;6.290;2023-10-31T05:13:51;246.90;;;233.52;;
25231;SDS011;13176;51.140;6.290;2023-10-31T05:16:21;270.40;;;255.63;;
25231;SDS011;13176;51.140;6.290;2023-10-31T05:18:47;320.00;;;302.88;;
25231;SDS011;13176;51.140;6.290;2023-10-31T05:21:18;341.08;;;322.02;;
25231;SDS011;13176;51.140;6.290;2023-10-31T05:23:46;391.10;;;368.75;;
25231;SDS011;13176;51.140;6.290;2023-10-31T05:26:13;445.17;;;418.98;;
25231;SDS011;13176;51.140;6.290;2023-10-31T05:28:39;463.08;;;436.45;;
25231;SDS011;13176;51.140;6.290;2023-10-31T05:31:06;439.00;;;413.55;;
25231;SDS011;13176;51.140;6.290;2023-10-31T05:33:32;499.38;;;470.42;;
25231;SDS011;13176;51.140;6.290;2023-10-31T05:35:59;540.65;;;506.10;;
25231;SDS011;13176;51.140;6.290;2023-10-31T05:38:25;480.23;;;452.50;;
25231;SDS011;13176;51.140;6.290;2023-10-31T05:40:52;457.30;;;431.48;;
25231;SDS011;13176;51.140;6.290;2023-10-31T05:43:18;418.92;;;395.13;;
25231;SDS011;13176;51.140;6.290;2023-10-31T05:45:45;421.48;;;396.48;;
25231;SDS011;13176;51.140;6.290;2023-10-31T05:48:11;375.48;;;354.45;;
25231;SDS011;13176;51.140;6.290;2023-10-31T05:50:41;363.02;;;342.58;;
25231;SDS011;13176;51.140;6.290;2023-10-31T05:53:08;365.10;;;344.75;;
25231;SDS011;13176;51.140;6.290;2023-10-31T05:55:38;332.45;;;313.55;;
25231;SDS011;13176;51.140;6.290;2023-10-31T05:58:05;302.60;;;285.90;;
25231;SDS011;13176;51.140;6.290;2023-10-31T06:00:31;303.88;;;287.45;;
25231;SDS011;13176;51.140;6.290;2023-10-31T06:02:58;322.98;;;305.13;;
25231;SDS011;13176;51.140;6.290;2023-10-31T06:05:24;285.90;;;270.40;;
25231;SDS011;13176;51.140;6.290;2023-10-31T06:07:51;283.20;;;267.95;;
25231;SDS011;13176;51.140;6.290;2023-10-31T06:10:18;274.00;;;258.98;;
25231;SDS011;13176;51.140;6.290;2023-10-31T06:12:44;260.23;;;246.38;;
25231;SDS011;13176;51.140;6.290;2023-10-31T06:15:10;234.13;;;221.10;;
25231;SDS011;13176;51.140;6.290;2023-10-31T06:17:37;216.55;;;204.88;;
25231;SDS011;13176;51.140;6.290;2023-10-31T06:20:04;241.70;;;228.55;;
25231;SDS011;13176;51.140;6.290;2023-10-31T06:22:32;271.77;;;257.08;;
25231;SDS011;13176;51.140;6.290;2023-10-31T06:24:58;316.98;;;299.30;;
25231;SDS011;13176;51.140;6.290;2023-10-31T06:27:25;397.15;;;374.17;;
25231;SDS011;13176;51.140;6.290;2023-10-31T06:29:51;407.02;;;384.05;;
25231;SDS011;13176;51.140;6.290;2023-10-31T06:32:36;407.15;;;383.75;;
25231;SDS011;13176;51.140;6.290;2023-10-31T06:35:06;456.90;;;430.33;;
25231;SDS011;13176;51.140;6.290;2023-10-31T06:37:33;473.45;;;445.55;;
25231;SDS011;13176;51.140;6.290;2023-10-31T06:40:00;503.17;;;473.75;;
25231;SDS011;13176;51.140;6.290;2023-10-31T06:42:27;556.83;;;523.55;;
25231;SDS011;13176;51.140;6.290;2023-10-31T06:44:53;579.17;;;543.42;;
25231;SDS011;13176;51.140;6.290;2023-10-31T06:47:20;602.25;;;565.25;;
25231;SDS011;13176;51.140;6.290;2023-10-31T06:49:46;613.45;;;574.97;;
25231;SDS011;13176;51.140;6.290;2023-10-31T06:52:13;601.25;;;564.08;;
25231;SDS011;13176;51.140;6.290;2023-10-31T06:54:39;604.40;;;566.95;;
25231;SDS011;13176;51.140;6.290;2023-10-31T06:57:06;604.33;;;567.42;;
25231;SDS011;13176;51.140;6.290;2023-10-31T06:59:32;581.42;;;545.08;;
25231;SDS011;13176;51.140;6.290;2023-10-31T07:01:58;612.63;;;573.85;;
25231;SDS011;13176;51.140;6.290;2023-10-31T07:04:25;619.72;;;580.42;;
25231;SDS011;13176;51.140;6.290;2023-10-31T07:06:52;629.50;;;589.33;;
25231;SDS011;13176;51.140;6.290;2023-10-31T07:09:23;617.40;;;578.53;;
25231;SDS011;13176;51.140;6.290;2023-10-31T07:11:51;619.50;;;581.75;;
25231;SDS011;13176;51.140;6.290;2023-10-31T07:14:17;595.55;;;559.40;;
25231;SDS011;13176;51.140;6.290;2023-10-31T07:16:44;604.30;;;566.95;;
25231;SDS011;13176;51.140;6.290;2023-10-31T07:19:11;588.75;;;552.42;;
25231;SDS011;13176;51.140;6.290;2023-10-31T07:21:37;534.45;;;502.52;;
25231;SDS011;13176;51.140;6.290;2023-10-31T07:24:04;564.92;;;531.78;;
25231;SDS011;13176;51.140;6.290;2023-10-31T07:26:31;553.30;;;520.30;;
25231;SDS011;13176;51.140;6.290;2023-10-31T07:28:57;487.27;;;459.58;;
25231;SDS011;13176;51.140;6.290;2023-10-31T07:31:24;479.30;;;451.83;;
25231;SDS011;13176;51.140;6.290;2023-10-31T07:33:51;433.02;;;408.15;;
25231;SDS011;13176;51.140;6.290;2023-10-31T07:36:17;429.50;;;405.13;;
25231;SDS011;13176;51.140;6.290;2023-10-31T07:38:43;396.48;;;374.00;;
25231;SDS011;13176;51.140;6.290;2023-10-31T07:41:10;322.52;;;304.77;;
25231;SDS011;13176;51.140;6.290;2023-10-31T07:43:36;322.38;;;304.70;;
25231;SDS011;13176;51.140;6.290;2023-10-31T07:46:04;317.70;;;300.67;;
25231;SDS011;13176;51.140;6.290;2023-10-31T07:48:31;293.83;;;277.33;;
25231;SDS011;13176;51.140;6.290;2023-10-31T07:50:57;336.80;;;318.25;;
25231;SDS011;13176;51.140;6.290;2023-10-31T07:53:24;285.52;;;269.70;;
25231;SDS011;13176;51.140;6.290;2023-10-31T07:55:50;287.17;;;271.10;;
25231;SDS011;13176;51.140;6.290;2023-10-31T07:58:17;239.93;;;227.00;;
25231;SDS011;13176;51.140;6.290;2023-10-31T08:00:43;210.43;;;198.73;;
25231;SDS011;13176;51.140;6.290;2023-10-31T08:03:09;214.35;;;202.63;;
25231;SDS011;13176;51.140;6.290;2023-10-31T08:05:36;232.40;;;219.48;;
25231;SDS011;13176;51.140;6.290;2023-10-31T08:08:03;206.80;;;195.38;;
25231;SDS011;13176;51.140;6.290;2023-10-31T08:10:29;208.43;;;197.10;;
25231;SDS011;13176;51.140;6.290;2023-10-31T08:12:56;192.82;;;182.20;;
25231;SDS011;13176;51.140;6.290;2023-10-31T08:15:22;193.60;;;183.13;;
25231;SDS011;13176;51.140;6.290;2023-10-31T08:17:49;189.27;;;178.90;;
25231;SDS011;13176;51.140;6.290;2023-10-31T08:20:15;180.48;;;170.77;;
25231;SDS011;13176;51.140;6.290;2023-10-31T08:22:42;174.75;;;165.20;;
25231;SDS011;13176;51.140;6.290;2023-10-31T08:25:11;161.07;;;152.18;;
25231;SDS011;13176;51.140;6.290;2023-10-31T08:27:38;235.18;;;220.90;;
25231;SDS011;13176;51.140;6.290;2023-10-31T08:30:05;107.45;;;101.57;;
25231;SDS011;13176;51.140;6.290;2023-10-31T08:32:32;93.38;;;88.22;;
25231;SDS011;13176;51.140;6.290;2023-10-31T08:34:59;116.28;;;109.85;;
25231;SDS011;13176;51.140;6.290;2023-10-31T08:37:26;126.30;;;119.25;;
25231;SDS011;13176;51.140;6.290;2023-10-31T08:39:52;114.35;;;107.90;;
25231;SDS011;13176;51.140;6.290;2023-10-31T08:42:19;117.93;;;111.32;;
25231;SDS011;13176;51.140;6.290;2023-10-31T08:44:46;151.57;;;143.23;;
25231;SDS011;13176;51.140;6.290;2023-10-31T08:47:12;92.50;;;87.22;;
25231;SDS011;13176;51.140;6.290;2023-10-31T08:49:39;126.57;;;119.05;;
25231;SDS011;13176;51.140;6.290;2023-10-31T08:52:11;45.55;;;42.97;;
25231;SDS011;13176;51.140;6.290;2023-10-31T08:54:38;45.65;;;43.05;;
25231;SDS011;13176;51.140;6.290;2023-10-31T08:57:04;56.65;;;53.22;;
25231;SDS011;13176;51.140;6.290;2023-10-31T08:59:31;53.47;;;50.38;;
25231;SDS011;13176;51.140;6.290;2023-10-31T09:01:57;51.80;;;48.95;;
25231;SDS011;13176;51.140;6.290;2023-10-31T09:04:24;57.85;;;54.55;;
25231;SDS011;13176;51.140;6.290;2023-10-31T09:06:50;46.70;;;44.10;;
25231;SDS011;13176;51.140;6.290;2023-10-31T09:09:17;118.55;;;110.60;;
25231;SDS011;13176;51.140;6.290;2023-10-31T09:11:44;41.20;;;38.95;;
25231;SDS011;13176;51.140;6.290;2023-10-31T09:14:11;37.85;;;35.58;;
25231;SDS011;13176;51.140;6.290;2023-10-31T09:16:37;30.58;;;28.70;;
25231;SDS011;13176;51.140;6.290;2023-10-31T09:19:04;27.38;;;25.83;;
25231;SDS011;13176;51.140;6.290;2023-10-31T09:21:30;25.33;;;23.77;;
25231;SDS011;13176;51.140;6.290;2023-10-31T09:23:57;27.23;;;25.70;;
25231;SDS011;13176;51.140;6.290;2023-10-31T09:26:23;26.08;;;24.42;;
25231;SDS011;13176;51.140;6.290;2023-10-31T09:28:50;27.50;;;25.90;;
25231;SDS011;13176;51.140;6.290;2023-10-31T09:31:17;26.90;;;25.33;;
25231;SDS011;13176;51.140;6.290;2023-10-31T09:33:44;24.23;;;22.85;;
25231;SDS011;13176;51.140;6.290;2023-10-31T09:36:13;24.80;;;23.15;;
25231;SDS011;13176;51.140;6.290;2023-10-31T09:38:40;25.15;;;23.55;;
25231;SDS011;13176;51.140;6.290;2023-10-31T09:41:07;26.23;;;24.55;;
25231;SDS011;13176;51.140;6.290;2023-10-31T09:43:34;26.05;;;24.55;;
25231;SDS011;13176;51.140;6.290;2023-10-31T09:46:00;26.00;;;24.58;;
25231;SDS011;13176;51.140;6.290;2023-10-31T09:48:28;27.25;;;25.55;;
25231;SDS011;13176;51.140;6.290;2023-10-31T09:50:55;25.52;;;24.02;;
25231;SDS011;13176;51.140;6.290;2023-10-31T09:53:23;25.38;;;23.83;;
25231;SDS011;13176;51.140;6.290;2023-10-31T09:55:50;23.63;;;22.30;;
25231;SDS011;13176;51.140;6.290;2023-10-31T09:58:18;25.40;;;23.80;;
25231;SDS011;13176;51.140;6.290;2023-10-31T10:00:44;24.35;;;22.98;;
25231;SDS011;13176;51.140;6.290;2023-10-31T10:03:11;27.83;;;26.08;;
25231;SDS011;13176;51.140;6.290;2023-10-31T10:05:38;29.10;;;27.33;;
25231;SDS011;13176;51.140;6.290;2023-10-31T10:08:06;28.17;;;26.63;;
25231;SDS011;13176;51.140;6.290;2023-10-31T10:10:33;27.05;;;25.27;;
25231;SDS011;13176;51.140;6.290;2023-10-31T10:13:00;27.67;;;26.17;;
25231;SDS011;13176;51.140;6.290;2023-10-31T10:15:29;29.67;;;27.80;;
25231;SDS011;13176;51.140;6.290;2023-10-31T10:17:56;27.98;;;26.40;;
25231;SDS011;13176;51.140;6.290;2023-10-31T10:20:22;29.88;;;28.27;;
25231;SDS011;13176;51.140;6.290;2023-10-31T10:22:49;28.35;;;26.75;;
25231;SDS011;13176;51.140;6.290;2023-10-31T10:25:17;31.88;;;30.13;;
25231;SDS011;13176;51.140;6.290;2023-10-31T10:27:47;25.38;;;23.88;;
25231;SDS011;13176;51.140;6.290;2023-10-31T10:30:14;26.13;;;24.77;;
25231;SDS011;13176;51.140;6.290;2023-10-31T10:32:42;27.08;;;25.33;;
25231;SDS011;13176;51.140;6.290;2023-10-31T10:35:09;27.08;;;25.38;;
25231;SDS011;13176;51.140;6.290;2023-10-31T10:37:38;23.75;;;22.50;;
25231;SDS011;13176;51.140;6.290;2023-10-31T10:40:10;22.30;;;20.90;;
25231;SDS011;13176;51.140;6.290;2023-10-31T10:42:46;20.20;;;18.50;;
25231;SDS011;13176;51.140;6.290;2023-10-31T10:45:15;35.92;;;34.00;;
25231;SDS011;13176;51.140;6.290;2023-10-31T10:47:45;24.15;;;22.77;;
25231;SDS011;13176;51.140;6.290;2023-10-31T10:50:16;28.80;;;27.13;;
25231;SDS011;13176;51.140;6.290;2023-10-31T10:52:50;27.50;;;25.85;;
25231;SDS011;13176;51.140;6.290;2023-10-31T10:55:26;26.27;;;24.77;;
25231;SDS011;13176;51.140;6.290;2023-10-31T11:00:31;22.85;;;21.38;;
25231;SDS011;13176;51.140;6.290;2023-10-31T11:02:58;24.83;;;23.23;;
25231;SDS011;13176;51.140;6.290;2023-10-31T11:05:25;23.67;;;22.30;;
25231;SDS011;13176;51.140;6.290;2023-10-31T11:07:53;25.80;;;24.25;;
25231;SDS011;13176;51.140;6.290;2023-10-31T11:10:25;26.17;;;24.77;;
25231;SDS011;13176;51.140;6.290;2023-10-31T11:12:53;23.52;;;22.23;;
25231;SDS011;13176;51.140;6.290;2023-10-31T11:15:20;27.65;;;26.15;;
25231;SDS011;13176;51.140;6.290;2023-10-31T11:17:46;24.70;;;22.83;;
25231;SDS011;13176;51.140;6.290;2023-10-31T11:20:15;25.65;;;24.15;;
25231;SDS011;13176;51.140;6.290;2023-10-31T11:22:46;26.88;;;25.38;;
25231;SDS011;13176;51.140;6.290;2023-10-31T11:28:10;18.92;;;17.70;;
25231;SDS011;13176;51.140;6.290;2023-10-31T11:30:41;23.92;;;22.50;;
25231;SDS011;13176;51.140;6.290;2023-10-31T11:33:13;27.98;;;26.45;;
25231;SDS011;13176;51.140;6.290;2023-10-31T11:35:40;26.50;;;25.00;;
25231;SDS011;13176;51.140;6.290;2023-10-31T11:38:09;29.48;;;27.88;;
25231;SDS011;13176;51.140;6.290;2023-10-31T11:40:38;31.25;;;29.45;;
25231;SDS011;13176;51.140;6.290;2023-10-31T11:43:15;30.58;;;28.65;;
25231;SDS011;13176;51.140;6.290;2023-10-31T11:45:43;28.95;;;27.35;;
25231;SDS011;13176;51.140;6.290;2023-10-31T11:48:14;29.05;;;27.17;;
25231;SDS011;13176;51.140;6.290;2023-10-31T11:50:41;25.88;;;24.48;;
25231;SDS011;13176;51.140;6.290;2023-10-31T11:53:09;24.83;;;23.33;;
25231;SDS011;13176;51.140;6.290;2023-10-31T11:55:40;25.20;;;23.88;;
25231;SDS011;13176;51.140;6.290;2023-10-31T12:00:42;27.05;;;25.60;;
25231;SDS011;13176;51.140;6.290;2023-10-31T12:03:09;26.10;;;24.60;;
25231;SDS011;13176;51.140;6.290;2023-10-31T12:05:35;26.27;;;24.70;;
25231;SDS011;13176;51.140;6.290;2023-10-31T12:08:02;26.08;;;24.60;;
25231;SDS011;13176;51.140;6.290;2023-10-31T12:10:28;28.95;;;27.27;;
25231;SDS011;13176;51.140;6.290;2023-10-31T12:12:58;26.50;;;24.90;;
25231;SDS011;13176;51.140;6.290;2023-10-31T12:15:25;30.00;;;28.35;;
25231;SDS011;13176;51.140;6.290;2023-10-31T12:17:52;25.90;;;24.38;;
25231;SDS011;13176;51.140;6.290;2023-10-31T12:20:23;27.52;;;26.00;;
25231;SDS011;13176;51.140;6.290;2023-10-31T12:23:09;21.67;;;20.30;;
25231;SDS011;13176;51.140;6.290;2023-10-31T12:28:15;24.35;;;22.95;;
25231;SDS011;13176;51.140;6.290;2023-10-31T12:30:46;23.48;;;22.08;;
25231;SDS011;13176;51.140;6.290;2023-10-31T12:33:15;22.50;;;21.25;;
25231;SDS011;13176;51.140;6.290;2023-10-31T12:35:43;21.63;;;20.27;;
25231;SDS011;13176;51.140;6.290;2023-10-31T12:38:10;16.05;;;14.90;;
25231;SDS011;13176;51.140;6.290;2023-10-31T12:40:42;17.48;;;16.48;;
25231;SDS011;13176;51.140;6.290;2023-10-31T12:43:10;16.88;;;15.90;;
25231;SDS011;13176;51.140;6.290;2023-10-31T12:45:36;17.40;;;16.20;;
25231;SDS011;13176;51.140;6.290;2023-10-31T12:48:07;16.83;;;15.50;;
25231;SDS011;13176;51.140;6.290;2023-10-31T12:50:36;17.08;;;15.88;;
25231;SDS011;13176;51.140;6.290;2023-10-31T12:53:04;15.48;;;14.48;;
25231;SDS011;13176;51.140;6.290;2023-10-31T12:55:37;17.85;;;16.80;;
25231;SDS011;13176;51.140;6.290;2023-10-31T12:58:05;17.90;;;16.67;;
25231;SDS011;13176;51.140;6.290;2023-10-31T13:00:33;17.88;;;16.75;;
25231;SDS011;13176;51.140;6.290;2023-10-31T13:03:04;17.08;;;16.08;;
25231;SDS011;13176;51.140;6.290;2023-10-31T13:05:32;16.40;;;15.45;;
25231;SDS011;13176;51.140;6.290;2023-10-31T13:07:59;16.92;;;15.75;;
25231;SDS011;13176;51.140;6.290;2023-10-31T13:10:27;17.08;;;15.80;;
25231;SDS011;13176;51.140;6.290;2023-10-31T13:12:54;16.48;;;15.30;;
25231;SDS011;13176;51.140;6.290;2023-10-31T13:15:22;16.33;;;15.00;;
25231;SDS011;13176;51.140;6.290;2023-10-31T13:17:50;16.77;;;15.55;;
25231;SDS011;13176;51.140;6.290;2023-10-31T13:20:18;16.48;;;15.38;;
25231;SDS011;13176;51.140;6.290;2023-10-31T13:22:46;16.33;;;15.45;;
25231;SDS011;13176;51.140;6.290;2023-10-31T13:25:19;17.10;;;16.02;;
25231;SDS011;13176;51.140;6.290;2023-10-31T13:27:45;17.70;;;16.33;;
25231;SDS011;13176;51.140;6.290;2023-10-31T13:30:17;17.33;;;16.17;;
25231;SDS011;13176;51.140;6.290;2023-10-31T13:32:44;17.10;;;16.00;;
25231;SDS011;13176;51.140;6.290;2023-10-31T13:35:11;16.10;;;14.95;;
25231;SDS011;13176;51.140;6.290;2023-10-31T13:37:38;16.98;;;15.98;;
25231;SDS011;13176;51.140;6.290;2023-10-31T13:40:05;16.60;;;15.40;;
25231;SDS011;13176;51.140;6.290;2023-10-31T13:42:35;18.35;;;17.02;;
25231;SDS011;13176;51.140;6.290;2023-10-31T13:45:02;17.95;;;16.75;;
25231;SDS011;13176;51.140;6.290;2023-10-31T13:47:31;17.42;;;16.33;;
25231;SDS011;13176;51.140;6.290;2023-10-31T13:49:58;18.33;;;16.98;;
25231;SDS011;13176;51.140;6.290;2023-10-31T13:52:25;18.20;;;17.00;;
25231;SDS011;13176;51.140;6.290;2023-10-31T13:54:51;17.60;;;16.35;;
25231;SDS011;13176;51.140;6.290;2023-10-31T13:57:18;16.10;;;14.93;;
25231;SDS011;13176;51.140;6.290;2023-10-31T13:59:44;18.23;;;17.15;;
25231;SDS011;13176;51.140;6.290;2023-10-31T14:02:15;16.92;;;15.80;;
25231;SDS011;13176;51.140;6.290;2023-10-31T14:04:42;17.25;;;15.77;;
25231;SDS011;13176;51.140;6.290;2023-10-31T14:07:08;16.33;;;15.18;;
25231;SDS011;13176;51.140;6.290;2023-10-31T14:09:35;16.95;;;15.65;;
25231;SDS011;13176;51.140;6.290;2023-10-31T14:12:02;17.38;;;16.25;;
25231;SDS011;13176;51.140;6.290;2023-10-31T14:14:28;16.50;;;15.35;;
25231;SDS011;13176;51.140;6.290;2023-10-31T14:16:55;15.93;;;14.63;;